Time;durP1;ratioP1;P1;durP2;ratioP2;P2;SDS_P1;SDS_P2;PMS_P1;PMS_P2;Temp;Humidity;BMP_temperature;BMP_pressure;BME280_temperature;BME280_humidity;BME280_pressure;Samples;Min_cycle;Max_cycle;Signal;HPM_P1;HPM_P2
2021/12/06 00:00:19;;;;;;;20.43;19.03;;;4.20;99.90;;;;;;5031354;28;20459;-71
2021/12/06 00:02:47;;;;;;;20.13;18.63;;;4.30;99.90;;;;;;5031363;28;20446;-72
2021/12/06 00:05:15;;;;;;;20.57;19.07;;;4.30;99.90;;;;;;5031290;28;20452;-72
2021/12/06 00:07:42;;;;;;;21.87;20.53;;;4.40;99.90;;;;;;5031240;28;20456;-72
2021/12/06 00:10:12;;;;;;;20.10;18.77;;;4.40;99.90;;;;;;5030919;28;20445;-71
2021/12/06 00:12:39;;;;;;;21.10;19.70;;;4.40;99.90;;;;;;5031049;28;20493;-71
2021/12/06 00:15:07;;;;;;;20.53;19.30;;;4.30;99.90;;;;;;5030846;28;20460;-72
2021/12/06 00:17:34;;;;;;;21.53;20.03;;;4.40;99.90;;;;;;5030790;28;20531;-72
2021/12/06 00:20:01;;;;;;;20.63;19.27;;;4.40;99.90;;;;;;5030739;28;20454;-72
2021/12/06 00:22:28;;;;;;;21.53;20.13;;;4.30;99.90;;;;;;5030755;28;20470;-72
2021/12/06 00:24:57;;;;;;;22.13;20.50;;;4.20;99.90;;;;;;5031056;28;20862;-73
2021/12/06 00:27:25;;;;;;;21.30;20.00;;;4.30;99.90;;;;;;5030745;28;20456;-72
2021/12/06 00:29:52;;;;;;;21.83;20.23;;;4.40;99.90;;;;;;5030578;28;20456;-72
2021/12/06 00:32:20;;;;;;;21.43;20.10;;;4.30;99.90;;;;;;5030503;28;20990;-72
2021/12/06 00:34:47;;;;;;;21.03;19.77;;;4.30;99.90;;;;;;5030669;28;20453;-71
2021/12/06 00:37:19;;;;;;;21.30;19.87;;;4.30;99.90;;;;;;5030539;28;20457;-72
2021/12/06 00:39:47;;;;;;;21.83;20.33;;;4.10;99.90;;;;;;5030799;28;20458;-71
2021/12/06 00:42:15;;;;;;;22.10;20.30;;;4.20;99.90;;;;;;5030734;28;20876;-71
2021/12/06 00:44:43;;;;;;;21.00;19.73;;;4.30;99.90;;;;;;5030639;28;20455;-72
2021/12/06 00:47:10;;;;;;;22.67;20.77;;;4.30;99.90;;;;;;5030329;28;20526;-72
2021/12/06 00:49:36;;;;;;;22.50;20.67;;;4.20;99.90;;;;;;5032096;28;20464;-72
2021/12/06 00:52:04;;;;;;;22.27;20.80;;;4.10;99.90;;;;;;5034262;28;20484;-72
2021/12/06 00:54:34;;;;;;;22.10;20.40;;;4.00;99.90;;;;;;5034372;28;20453;-73
2021/12/06 00:57:01;;;;;;;23.37;21.77;;;4.10;99.90;;;;;;5034283;28;20504;-72
2021/12/06 00:59:28;;;;;;;22.63;21.17;;;4.20;99.90;;;;;;5034447;28;20446;-72
2021/12/06 01:01:56;;;;;;;21.17;19.87;;;4.20;99.90;;;;;;5033781;28;20476;-72
2021/12/06 01:04:23;;;;;;;21.27;19.97;;;4.20;99.90;;;;;;5034121;28;20453;-72
2021/12/06 01:06:50;;;;;;;22.63;21.13;;;4.20;99.90;;;;;;5033792;28;20993;-71
2021/12/06 01:09:17;;;;;;;22.63;21.10;;;4.20;99.90;;;;;;5034136;28;20794;-71
2021/12/06 01:11:43;;;;;;;22.60;20.80;;;4.20;99.90;;;;;;5034118;28;20457;-71
2021/12/06 01:14:10;;;;;;;22.00;20.60;;;4.20;99.90;;;;;;5033908;28;20452;-70
2021/12/06 01:16:37;;;;;;;23.00;21.30;;;4.20;99.90;;;;;;5033744;28;20552;-71
2021/12/06 01:19:05;;;;;;;21.57;20.27;;;4.30;99.90;;;;;;5033657;28;20807;-70
2021/12/06 01:21:43;;;;;;;21.10;19.63;;;4.30;99.90;;;;;;5033703;28;20455;-71
2021/12/06 01:24:11;;;;;;;21.13;19.67;;;4.20;99.90;;;;;;5033758;28;20504;-71
2021/12/06 01:26:59;;;;;;;20.87;19.20;;;4.20;99.90;;;;;;5033723;28;20480;-72
2021/12/06 01:29:45;;;;;;;21.80;20.40;;;4.20;99.90;;;;;;5039726;28;20472;-72
2021/12/06 01:32:22;;;;;;;20.97;19.47;;;4.30;99.90;;;;;;5053251;28;20496;-72
2021/12/06 01:40:22;;;;;;;21.43;19.93;;;4.20;99.90;;;;;;5033622;28;20428;-71
2021/12/06 01:42:48;;;;;;;22.50;21.20;;;4.20;99.90;;;;;;5033571;28;20459;-71
2021/12/06 01:45:15;;;;;;;21.93;20.33;;;4.20;99.90;;;;;;5033300;28;20481;-71
2021/12/06 01:47:42;;;;;;;21.37;19.97;;;4.20;99.90;;;;;;5033477;28;20451;-71
2021/12/06 01:50:14;;;;;;;22.33;20.80;;;4.20;99.90;;;;;;5033322;28;20456;-72
2021/12/06 01:52:43;;;;;;;21.80;20.40;;;4.20;99.90;;;;;;5033092;28;20543;-72
2021/12/06 01:55:13;;;;;;;21.33;19.97;;;4.30;99.90;;;;;;5033082;28;20456;-72
2021/12/06 01:57:40;;;;;;;22.30;20.77;;;4.30;99.90;;;;;;5032839;28;20449;-72
2021/12/06 02:00:11;;;;;;;21.77;20.27;;;4.30;99.90;;;;;;5032705;28;20452;-71
2021/12/06 02:02:38;;;;;;;21.30;20.00;;;4.30;99.90;;;;;;5032970;28;20441;-71
2021/12/06 02:05:06;;;;;;;22.17;20.60;;;4.30;99.90;;;;;;5032956;28;20486;-72
2021/12/06 02:07:34;;;;;;;21.80;20.40;;;4.40;99.90;;;;;;5032870;28;20456;-72
2021/12/06 02:10:01;;;;;;;21.97;20.33;;;4.30;99.90;;;;;;5032937;28;20466;-73
2021/12/06 02:12:30;;;;;;;21.97;20.37;;;4.20;99.90;;;;;;5032770;28;20496;-73
2021/12/06 02:15:02;;;;;;;20.57;19.30;;;4.20;99.90;;;;;;5032691;28;20575;-72
2021/12/06 02:17:32;;;;;;;22.27;20.67;;;4.20;99.90;;;;;;5032650;28;20479;-72
2021/12/06 02:20:04;;;;;;;22.53;20.83;;;4.10;99.90;;;;;;5032676;28;20457;-72
2021/12/06 02:22:36;;;;;;;22.20;20.70;;;4.10;99.90;;;;;;5032687;28;20473;-72
2021/12/06 02:25:05;;;;;;;21.40;20.10;;;4.10;99.90;;;;;;5032345;28;20457;-73
2021/12/06 02:27:32;;;;;;;22.60;21.10;;;4.10;99.90;;;;;;5032623;28;20456;-72
2021/12/06 02:30:01;;;;;;;21.83;20.47;;;4.00;99.90;;;;;;5032671;28;20834;-72
2021/12/06 02:32:27;;;;;;;22.13;20.70;;;4.00;99.90;;;;;;5032424;28;20484;-72
2021/12/06 02:34:56;;;;;;;23.17;21.47;;;4.10;99.90;;;;;;5032193;28;20457;-71
2021/12/06 02:37:29;;;;;;;22.43;21.03;;;4.10;99.90;;;;;;5032034;28;20450;-71
2021/12/06 02:39:58;;;;;;;22.27;20.73;;;4.00;99.90;;;;;;5032404;28;20552;-72
2021/12/06 02:42:26;;;;;;;22.10;20.60;;;4.10;99.90;;;;;;5034268;28;20469;-71
2021/12/06 02:44:54;;;;;;;23.53;21.90;;;4.10;99.90;;;;;;5050450;28;20452;-71
2021/12/06 02:47:21;;;;;;;22.07;20.57;;;4.00;99.90;;;;;;5048896;28;20436;-72
2021/12/06 02:49:49;;;;;;;24.80;22.70;;;4.00;99.90;;;;;;5051475;28;20926;-71
2021/12/06 02:52:16;;;;;;;22.53;21.00;;;4.10;99.90;;;;;;5051455;28;20447;-72
2021/12/06 02:54:44;;;;;;;23.53;22.00;;;4.10;99.90;;;;;;5051486;28;20449;-73
2021/12/06 02:57:31;;;;;;;23.00;21.70;;;4.10;99.90;;;;;;5051538;28;20448;-73
2021/12/06 02:59:58;;;;;;;24.67;22.83;;;4.10;99.90;;;;;;5051911;28;20478;-73
2021/12/06 03:02:26;;;;;;;24.43;22.83;;;4.00;99.90;;;;;;5051521;28;20444;-73
2021/12/06 03:04:53;;;;;;;26.30;24.40;;;4.00;99.90;;;;;;5051378;28;20464;-72
2021/12/06 03:07:20;;;;;;;26.07;24.23;;;4.00;99.90;;;;;;5051522;28;20857;-72
2021/12/06 03:09:51;;;;;;;27.63;25.60;;;4.00;99.90;;;;;;5051578;28;20945;-72
2021/12/06 03:12:23;;;;;;;25.93;24.13;;;4.10;99.90;;;;;;5050854;28;20448;-72
2021/12/06 03:14:52;;;;;;;26.40;24.40;;;4.00;99.90;;;;;;5051266;28;20880;-72
2021/12/06 03:17:21;;;;;;;28.23;26.23;;;4.20;99.90;;;;;;5051371;28;20448;-72
2021/12/06 03:19:48;;;;;;;27.40;25.53;;;4.20;99.90;;;;;;5051300;28;20456;-72
2021/12/06 03:22:16;;;;;;;26.43;24.67;;;4.20;99.90;;;;;;5051358;28;20480;-72
2021/12/06 03:24:44;;;;;;;26.30;24.60;;;4.20;99.90;;;;;;5051381;28;20952;-73
2021/12/06 03:27:12;;;;;;;25.60;23.80;;;4.20;99.90;;;;;;5051218;28;20821;-73
2021/12/06 03:29:41;;;;;;;24.57;22.87;;;4.10;99.90;;;;;;5051164;28;20444;-73
2021/12/06 03:32:08;;;;;;;25.10;23.40;;;4.10;99.90;;;;;;5051276;28;20461;-73
2021/12/06 03:34:35;;;;;;;25.80;23.90;;;4.20;99.90;;;;;;5051118;28;20502;-73
2021/12/06 03:37:05;;;;;;;25.73;24.13;;;4.10;99.90;;;;;;5051083;28;20455;-72
2021/12/06 03:39:35;;;;;;;27.17;25.37;;;4.20;99.90;;;;;;5051525;28;20505;-72
2021/12/06 03:42:07;;;;;;;25.50;23.70;;;4.10;99.90;;;;;;5050958;28;20455;-72
2021/12/06 03:44:34;;;;;;;25.83;24.23;;;4.20;99.90;;;;;;5050805;28;20501;-71
2021/12/06 03:47:05;;;;;;;25.57;23.87;;;4.30;99.90;;;;;;5050937;28;21187;-72
2021/12/06 03:49:32;;;;;;;25.13;23.47;;;4.30;99.90;;;;;;5051042;28;20450;-71
2021/12/06 03:51:59;;;;;;;26.03;24.17;;;4.40;99.90;;;;;;5050783;28;20444;-71
2021/12/06 03:54:28;;;;;;;25.73;23.93;;;4.40;99.90;;;;;;5050840;28;20843;-70
2021/12/06 03:56:55;;;;;;;26.37;24.17;;;4.30;99.90;;;;;;5050937;28;20815;-71
2021/12/06 03:59:22;;;;;;;24.10;22.40;;;4.30;99.90;;;;;;5050846;28;20502;-71
2021/12/06 04:01:49;;;;;;;24.13;22.73;;;4.20;99.90;;;;;;5050737;28;20452;-72
2021/12/06 04:04:18;;;;;;;24.50;23.00;;;4.30;99.90;;;;;;5051023;28;20448;-72
2021/12/06 04:06:45;;;;;;;24.40;22.50;;;4.30;99.90;;;;;;5051087;28;20440;-72
2021/12/06 04:09:12;;;;;;;24.97;23.17;;;4.30;99.90;;;;;;5051036;28;20470;-72
2021/12/06 04:11:40;;;;;;;25.87;24.07;;;4.30;99.90;;;;;;5050620;28;20448;-72
2021/12/06 04:14:08;;;;;;;24.93;23.23;;;4.20;99.90;;;;;;5050712;28;20479;-71
2021/12/06 04:16:35;;;;;;;27.03;25.00;;;4.30;99.90;;;;;;5050722;28;20453;-72
2021/12/06 04:19:04;;;;;;;26.43;24.77;;;4.40;99.90;;;;;;5050635;28;20463;-71
2021/12/06 04:21:32;;;;;;;27.50;25.30;;;4.30;99.90;;;;;;5050855;28;20455;-72
2021/12/06 04:24:00;;;;;;;27.33;25.33;;;4.30;99.90;;;;;;5053335;28;20866;-71
2021/12/06 04:26:27;;;;;;;26.77;24.93;;;4.40;99.90;;;;;;5054857;28;20453;-72
2021/12/06 04:29:00;;;;;;;27.47;25.63;;;4.40;99.90;;;;;;5054671;28;20475;-72
2021/12/06 04:31:29;;;;;;;26.60;24.70;;;4.30;99.90;;;;;;5054628;28;20471;-72
2021/12/06 04:33:55;;;;;;;27.60;25.60;;;4.20;99.90;;;;;;5054424;28;20614;-72
2021/12/06 04:36:22;;;;;;;27.23;25.33;;;4.20;99.90;;;;;;5054354;28;20464;-72
2021/12/06 04:38:50;;;;;;;25.97;24.17;;;4.20;99.90;;;;;;5054547;28;20454;-72
2021/12/06 04:41:17;;;;;;;28.10;26.00;;;4.30;99.90;;;;;;5054370;28;20511;-72
2021/12/06 04:43:44;;;;;;;28.13;26.13;;;4.20;99.90;;;;;;5054559;28;20452;-72
2021/12/06 04:46:11;;;;;;;28.53;26.47;;;4.30;99.90;;;;;;5053940;28;20526;-72
2021/12/06 04:48:38;;;;;;;26.63;24.83;;;4.30;99.90;;;;;;5054104;28;20455;-72
2021/12/06 04:51:05;;;;;;;28.50;26.40;;;4.30;99.90;;;;;;5054078;28;20979;-71
2021/12/06 04:53:36;;;;;;;28.40;25.97;;;4.30;99.90;;;;;;5054173;28;20845;-71
2021/12/06 04:56:14;;;;;;;28.70;26.50;;;4.50;99.90;;;;;;5054178;28;20452;-71
2021/12/06 04:58:47;;;;;;;30.33;27.83;;;4.40;99.90;;;;;;5053824;28;20443;-71
2021/12/06 05:01:17;;;;;;;28.63;26.37;;;4.40;99.90;;;;;;5053736;28;20478;-72
2021/12/06 05:03:44;;;;;;;30.00;27.60;;;4.40;99.90;;;;;;5053729;28;20959;-72
2021/12/06 05:06:15;;;;;;;29.40;27.10;;;4.30;99.90;;;;;;5053951;28;20462;-69
2021/12/06 05:08:45;;;;;;;30.07;27.60;;;4.40;99.90;;;;;;5053649;28;20902;-70
2021/12/06 05:11:13;;;;;;;30.47;28.17;;;4.50;99.90;;;;;;5053764;28;20444;-71
2021/12/06 05:13:43;;;;;;;31.63;29.10;;;4.40;99.90;;;;;;5053260;28;20492;-71
2021/12/06 05:16:10;;;;;;;31.85;29.15;;;4.50;99.90;;;;;;5053490;28;20447;-75
2021/12/06 05:18:37;;;;;;;33.40;30.53;;;4.60;99.90;;;;;;5053782;28;20264;-78
2021/12/06 05:21:04;;;;;;;31.30;28.17;;;4.70;99.90;;;;;;5053592;28;20467;-79
2021/12/06 05:23:31;;;;;;;30.70;28.10;;;4.80;99.90;;;;;;5053193;28;20460;-76
2021/12/06 05:25:58;;;;;;;31.53;28.77;;;4.80;99.90;;;;;;5053509;28;20459;-75
2021/12/06 05:28:30;;;;;;;33.23;30.53;;;5.00;99.90;;;;;;5053400;28;20456;-75
2021/12/06 05:30:57;;;;;;;30.33;27.83;;;5.00;99.90;;;;;;5053368;28;20456;-77
2021/12/06 05:33:30;;;;;;;30.23;27.67;;;5.00;99.90;;;;;;5053269;28;20488;-71
2021/12/06 05:35:58;;;;;;;31.53;29.13;;;5.10;99.90;;;;;;5052631;28;20462;-72
2021/12/06 05:38:26;;;;;;;34.37;31.37;;;5.00;99.90;;;;;;5051332;28;20543;-71
2021/12/06 05:40:53;;;;;;;30.57;27.90;;;5.00;99.90;;;;;;5050931;28;20510;-71
2021/12/06 05:44:00;;;;;;;34.23;31.00;;;5.00;99.90;;;;;;5052513;28;20964;-71
2021/12/06 05:46:28;;;;;;;31.80;29.13;;;5.00;99.90;;;;;;5048288;28;20474;-71
2021/12/06 05:48:55;;;;;;;34.10;31.10;;;5.00;99.90;;;;;;5052511;28;20444;-71
2021/12/06 05:51:21;;;;;;;29.83;27.43;;;5.00;99.90;;;;;;5052677;28;20871;-71
2021/12/06 05:53:49;;;;;;;31.20;28.30;;;5.10;99.90;;;;;;5052607;28;20903;-71
2021/12/06 05:56:15;;;;;;;33.07;30.20;;;5.00;99.90;;;;;;5052717;28;20444;-73
2021/12/06 05:58:42;;;;;;;33.10;30.07;;;5.10;99.90;;;;;;5052741;28;20504;-73
2021/12/06 06:01:09;;;;;;;31.93;29.23;;;5.10;99.90;;;;;;5052607;28;20454;-72
2021/12/06 06:03:37;;;;;;;30.73;28.17;;;5.00;99.90;;;;;;5052671;28;20452;-73
2021/12/06 06:06:04;;;;;;;32.90;30.10;;;5.00;99.90;;;;;;5051101;28;20448;-73
2021/12/06 06:08:31;;;;;;;31.13;28.70;;;4.90;99.90;;;;;;5073352;28;20448;-72
2021/12/06 06:10:57;;;;;;;31.13;28.27;;;4.90;99.90;;;;;;5073898;28;20449;-73
2021/12/06 06:13:24;;;;;;;29.20;26.80;;;5.00;99.90;;;;;;5072860;28;20478;-73
2021/12/06 06:15:51;;;;;;;29.70;27.40;;;5.00;99.90;;;;;;5053110;28;20458;-71
2021/12/06 06:18:18;;;;;;;29.43;26.93;;;5.00;99.90;;;;;;5052717;28;20449;-72
2021/12/06 06:20:49;;;;;;;28.90;26.60;;;4.90;99.90;;;;;;5052663;28;20848;-74
2021/12/06 06:23:16;;;;;;;30.47;28.07;;;4.90;99.90;;;;;;5052181;28;20985;-73
2021/12/06 06:25:43;;;;;;;32.53;29.53;;;4.90;99.90;;;;;;5052291;28;20825;-72
2021/12/06 06:28:10;;;;;;;34.90;31.70;;;5.00;99.90;;;;;;5052019;28;20455;-73
2021/12/06 06:30:37;;;;;;;33.83;30.50;;;5.00;99.90;;;;;;5051896;28;20452;-73
2021/12/06 06:33:05;;;;;;;35.00;30.17;;;5.00;99.90;;;;;;5051703;28;20457;-73
2021/12/06 06:35:31;;;;;;;30.70;28.10;;;5.00;99.90;;;;;;5051929;28;20592;-73
2021/12/06 06:38:00;;;;;;;35.30;31.07;;;4.90;99.90;;;;;;5052000;28;20456;-72
2021/12/06 06:40:27;;;;;;;34.20;31.10;;;4.90;99.90;;;;;;5051866;28;20459;-73
2021/12/06 06:42:53;;;;;;;34.07;30.70;;;4.90;99.90;;;;;;5051619;28;20444;-73
2021/12/06 06:45:21;;;;;;;34.77;31.67;;;4.90;99.90;;;;;;5051409;28;20837;-73
2021/12/06 06:47:49;;;;;;;34.27;31.17;;;4.90;99.90;;;;;;5050970;28;20452;-73
2021/12/06 06:50:17;;;;;;;32.97;29.70;;;4.80;99.90;;;;;;5051779;28;20452;-73
2021/12/06 06:52:44;;;;;;;32.93;29.97;;;4.80;99.90;;;;;;5051748;28;20784;-73
2021/12/06 06:55:13;;;;;;;36.47;33.10;;;4.70;99.90;;;;;;5051299;28;20483;-73
2021/12/06 06:57:41;;;;;;;35.80;32.10;;;4.60;99.90;;;;;;5051353;28;20458;-73
2021/12/06 07:00:11;;;;;;;34.50;31.40;;;4.60;99.90;;;;;;5051330;28;21170;-73
2021/12/06 07:02:38;;;;;;;34.47;30.90;;;4.60;99.90;;;;;;5051449;28;20466;-73
2021/12/06 07:05:05;;;;;;;34.20;31.10;;;4.60;99.90;;;;;;5051248;28;20448;-73
2021/12/06 07:07:32;;;;;;;36.43;32.63;;;4.60;99.90;;;;;;5051361;28;20527;-73
2021/12/06 07:09:59;;;;;;;34.07;30.80;;;4.70;99.90;;;;;;5051403;28;20464;-73
2021/12/06 07:12:27;;;;;;;34.70;31.20;;;4.80;99.90;;;;;;5049404;28;20456;-73
2021/12/06 07:14:54;;;;;;;36.40;32.90;;;4.70;99.90;;;;;;5050874;28;20486;-72
2021/12/06 07:17:21;;;;;;;35.70;32.00;;;4.70;99.90;;;;;;5050967;28;20456;-73
2021/12/06 07:19:48;;;;;;;36.23;32.90;;;4.70;99.90;;;;;;5050988;28;20762;-73
2021/12/06 07:22:14;;;;;;;36.07;32.30;;;4.70;99.90;;;;;;5050970;28;20476;-73
2021/12/06 07:24:41;;;;;;;34.00;30.90;;;4.70;99.90;;;;;;5050789;28;20442;-73
2021/12/06 07:27:08;;;;;;;36.57;33.20;;;4.60;99.90;;;;;;5050793;28;20444;-73
2021/12/06 07:29:37;;;;;;;36.70;33.07;;;4.60;99.90;;;;;;5050714;28;20940;-73
2021/12/06 07:32:05;;;;;;;34.70;31.40;;;4.70;99.90;;;;;;5050548;28;20464;-73
2021/12/06 07:34:34;;;;;;;39.50;35.27;;;4.70;99.90;;;;;;5050280;28;20580;-74
2021/12/06 07:37:01;;;;;;;34.57;31.40;;;4.70;99.90;;;;;;5050353;28;20535;-73
2021/12/06 07:39:28;;;;;;;34.07;31.00;;;4.70;99.90;;;;;;5050538;28;20979;-73
2021/12/06 07:41:56;;;;;;;34.23;30.73;;;4.60;99.90;;;;;;5050292;28;20458;-73
2021/12/06 07:44:23;;;;;;;33.87;30.67;;;4.60;99.90;;;;;;5050380;28;20826;-74
2021/12/06 07:46:52;;;;;;;37.17;33.10;;;4.60;99.90;;;;;;5050179;28;20487;-73
2021/12/06 07:49:19;;;;;;;35.73;32.03;;;4.70;99.90;;;;;;5050255;28;20539;-73
2021/12/06 07:51:46;;;;;;;33.50;30.30;;;4.70;99.90;;;;;;5050437;28;20455;-73
2021/12/06 07:54:13;;;;;;;36.00;32.53;;;4.60;99.90;;;;;;5050381;28;20493;-73
2021/12/06 07:56:41;;;;;;;35.30;31.80;;;4.80;99.90;;;;;;5050398;28;20541;-72
2021/12/06 07:59:07;;;;;;;37.80;33.70;;;4.90;99.90;;;;;;5050076;28;20454;-73
2021/12/06 08:01:34;;;;;;;36.67;33.20;;;5.00;99.90;;;;;;5050190;28;20452;-73
2021/12/06 08:04:02;;;;;;;35.47;32.17;;;5.10;99.90;;;;;;5050534;28;20449;-72
2021/12/06 08:06:29;;;;;;;35.07;31.20;;;5.20;99.90;;;;;;5050458;28;20571;-73
2021/12/06 08:08:56;;;;;;;34.13;30.93;;;5.10;99.90;;;;;;5050192;28;20449;-73
2021/12/06 08:11:23;;;;;;;34.73;31.43;;;5.20;99.90;;;;;;5050265;28;20455;-73
2021/12/06 08:13:54;;;;;;;36.23;32.80;;;5.20;99.90;;;;;;5050076;28;20485;-73
2021/12/06 08:16:25;;;;;;;33.60;30.40;;;5.20;99.90;;;;;;5049712;28;20460;-73
2021/12/06 08:18:51;;;;;;;35.53;32.03;;;5.30;99.90;;;;;;5049940;28;20459;-73
2021/12/06 08:21:22;;;;;;;32.90;29.73;;;5.30;99.90;;;;;;5049832;28;20456;-73
2021/12/06 08:23:50;;;;;;;38.20;32.80;;;5.40;99.90;;;;;;5049808;28;20481;-73
2021/12/06 08:26:18;;;;;;;33.33;30.23;;;5.40;99.90;;;;;;5049972;28;20446;-74
2021/12/06 08:28:46;;;;;;;31.43;28.53;;;5.50;99.90;;;;;;5050111;28;20450;-74
2021/12/06 08:31:13;;;;;;;33.20;29.87;;;5.60;99.90;;;;;;5049792;28;20454;-73
2021/12/06 08:33:41;;;;;;;31.10;28.10;;;5.70;99.90;;;;;;5049851;28;20459;-73
2021/12/06 08:36:09;;;;;;;33.67;30.47;;;5.80;99.90;;;;;;5049631;28;20499;-73
2021/12/06 08:38:39;;;;;;;29.90;27.23;;;5.80;99.90;;;;;;5049768;28;20456;-72
2021/12/06 08:41:09;;;;;;;29.67;26.87;;;5.90;99.90;;;;;;5049806;28;20453;-73
2021/12/06 08:43:37;;;;;;;29.70;26.60;;;5.90;99.90;;;;;;5049689;28;20454;-73
2021/12/06 08:46:06;;;;;;;31.57;28.57;;;5.70;99.90;;;;;;5049098;28;20474;-73
2021/12/06 08:48:36;;;;;;;31.87;28.93;;;5.90;99.90;;;;;;5049888;28;20451;-73
2021/12/06 08:51:06;;;;;;;29.67;27.03;;;6.10;99.90;;;;;;5049892;28;20458;-74
2021/12/06 08:53:34;;;;;;;30.67;27.87;;;6.20;99.90;;;;;;5049837;28;20448;-74
2021/12/06 08:56:02;;;;;;;29.40;26.50;;;6.20;99.90;;;;;;5050007;28;20494;-75
2021/12/06 08:58:28;;;;;;;32.27;29.30;;;6.20;99.90;;;;;;5039724;28;20470;-73
2021/12/06 09:00:55;;;;;;;31.13;28.20;;;6.40;99.90;;;;;;5029831;28;20632;-73
2021/12/06 09:03:22;;;;;;;28.27;25.67;;;6.40;99.90;;;;;;5029905;28;20999;-74
2021/12/06 09:05:53;;;;;;;28.93;26.23;;;6.40;99.90;;;;;;5029485;28;20946;-74
2021/12/06 09:08:21;;;;;;;29.13;26.20;;;6.40;99.90;;;;;;5029691;28;20460;-75
2021/12/06 09:10:50;;;;;;;28.70;26.00;;;6.30;99.90;;;;;;5031652;28;20698;-74
2021/12/06 09:13:19;;;;;;;27.20;24.60;;;6.50;99.90;;;;;;5033312;28;20452;-74
2021/12/06 09:15:47;;;;;;;26.90;23.33;;;6.60;99.90;;;;;;5033277;28;20542;-74
2021/12/06 09:18:13;;;;;;;25.97;23.33;;;6.70;99.90;;;;;;5033100;28;20456;-74
2021/12/06 09:20:45;;;;;;;25.30;23.03;;;6.80;99.90;;;;;;5047902;28;20478;-74
2021/12/06 09:23:13;;;;;;;23.73;21.90;;;6.80;99.90;;;;;;5052875;28;20528;-74
2021/12/06 09:25:42;;;;;;;24.07;21.93;;;6.80;99.90;;;;;;5052916;28;20475;-74
2021/12/06 09:28:09;;;;;;;27.27;24.73;;;7.00;99.90;;;;;;5053024;28;20451;-74
2021/12/06 09:30:38;;;;;;;24.70;22.40;;;7.10;99.90;;;;;;5052716;28;20448;-74
2021/12/06 09:33:07;;;;;;;25.40;22.73;;;7.20;99.90;;;;;;5052854;28;20448;-74
2021/12/06 09:35:36;;;;;;;25.17;22.83;;;7.20;99.90;;;;;;5052611;28;20488;-74
2021/12/06 09:38:05;;;;;;;23.33;21.33;;;7.40;99.90;;;;;;5052775;28;20466;-74
2021/12/06 09:40:35;;;;;;;25.80;23.27;;;7.30;99.90;;;;;;5052630;28;20539;-74
2021/12/06 09:43:05;;;;;;;26.43;23.50;;;7.20;99.90;;;;;;5052480;28;20452;-74
2021/12/06 09:45:33;;;;;;;26.73;21.77;;;7.20;99.90;;;;;;5052765;28;20886;-77
2021/12/06 09:48:03;;;;;;;23.60;21.53;;;7.30;99.90;;;;;;5052766;28;20459;-73
2021/12/06 09:50:36;;;;;;;26.23;23.93;;;7.20;99.90;;;;;;5051822;28;20459;-74
2021/12/06 09:53:06;;;;;;;23.43;21.37;;;7.20;99.90;;;;;;5046103;28;20452;-74
2021/12/06 09:55:33;;;;;;;23.50;21.30;;;7.30;99.90;;;;;;5051299;28;20487;-74
2021/12/06 09:58:01;;;;;;;27.63;25.20;;;7.30;99.90;;;;;;5051576;28;20941;-73
2021/12/06 10:00:37;;;;;;;26.53;23.83;;;7.40;99.90;;;;;;5052342;28;20448;-74
2021/12/06 10:03:05;;;;;;;25.20;23.00;;;7.60;99.90;;;;;;5052223;28;20554;-73
2021/12/06 10:05:32;;;;;;;25.57;23.23;;;7.70;99.90;;;;;;5052126;28;20440;-73
2021/12/06 10:08:01;;;;;;;24.83;22.57;;;7.70;99.90;;;;;;5052338;28;20448;-74
2021/12/06 10:10:29;;;;;;;24.77;22.37;;;7.60;99.90;;;;;;5051929;28;20444;-74
2021/12/06 10:12:56;;;;;;;27.20;24.60;;;7.70;99.90;;;;;;5051637;28;20830;-74
2021/12/06 10:15:26;;;;;;;25.93;23.67;;;7.80;99.90;;;;;;5051324;28;20483;-74
2021/12/06 10:17:53;;;;;;;28.37;25.87;;;7.80;99.90;;;;;;5051770;28;20480;-74
2021/12/06 10:20:22;;;;;;;25.83;23.60;;;8.00;99.90;;;;;;5051309;28;20455;-73
2021/12/06 10:22:50;;;;;;;26.87;24.37;;;8.00;99.90;;;;;;5051344;28;20526;-74
2021/12/06 10:25:18;;;;;;;24.53;22.37;;;7.90;99.90;;;;;;5051755;28;20451;-73
2021/12/06 10:27:52;;;;;;;25.37;23.13;;;8.00;99.90;;;;;;5051707;28;20558;-73
2021/12/06 10:30:19;;;;;;;26.53;24.03;;;8.30;99.90;;;;;;5051467;28;20539;-73
2021/12/06 10:32:46;;;;;;;22.80;20.70;;;8.80;99.90;;;;;;5051544;28;20628;-74
2021/12/06 10:35:15;;;;;;;24.17;21.77;;;9.60;99.90;;;;;;5051398;28;20488;-74
2021/12/06 10:37:46;;;;;;;22.17;20.43;;;10.50;99.90;;;;;;5051202;28;20946;-74
2021/12/06 10:40:16;;;;;;;23.53;21.33;;;11.20;99.90;;;;;;5051443;28;20472;-74
2021/12/06 10:42:45;;;;;;;19.40;17.80;;;11.60;99.90;;;;;;5051099;28;20957;-72
2021/12/06 10:45:15;;;;;;;20.37;18.80;;;11.60;99.90;;;;;;5050966;28;20440;-74
2021/12/06 10:47:43;;;;;;;21.63;20.00;;;11.50;99.90;;;;;;5051884;28;20486;-72
2021/12/06 10:50:14;;;;;;;22.30;20.67;;;12.20;99.90;;;;;;5052294;28;20456;-72
2021/12/06 10:52:56;;;;;;;22.37;20.70;;;13.30;99.00;;;;;;5052682;28;20455;-74
2021/12/06 10:55:27;;;;;;;22.40;20.67;;;15.10;95.40;;;;;;5051397;28;20483;-75
2021/12/06 10:57:56;;;;;;;21.80;20.23;;;15.40;93.40;;;;;;5051692;28;21039;-74
2021/12/06 11:00:46;;;;;;;22.10;20.30;;;14.80;93.00;;;;;;5060298;28;20447;-73
2021/12/06 11:03:26;;;;;;;18.60;17.20;;;13.80;94.40;;;;;;5071701;28;20451;-73
2021/12/06 11:05:58;;;;;;;20.80;19.20;;;12.40;95.60;;;;;;5072938;28;20440;-73
2021/12/06 11:08:27;;;;;;;18.53;17.23;;;11.90;96.40;;;;;;5061312;28;20502;-73
2021/12/06 11:10:56;;;;;;;19.77;18.07;;;11.50;97.80;;;;;;5058712;28;20515;-74
2021/12/06 11:13:25;;;;;;;19.00;17.47;;;11.10;99.00;;;;;;5057115;28;20444;-74
2021/12/06 11:16:02;;;;;;;18.60;17.20;;;10.80;99.60;;;;;;5055600;28;20487;-73
2021/12/06 11:18:34;;;;;;;18.60;17.10;;;10.70;99.70;;;;;;5050540;28;20471;-74
2021/12/06 11:21:03;;;;;;;20.47;18.90;;;10.50;99.90;;;;;;5049773;28;20452;-74
2021/12/06 11:23:31;;;;;;;19.40;17.80;;;10.40;99.90;;;;;;5045413;28;20476;-74
2021/12/06 11:26:01;;;;;;;17.97;16.47;;;10.00;99.90;;;;;;5050142;28;20447;-74
2021/12/06 11:28:31;;;;;;;18.43;16.97;;;9.80;99.90;;;;;;5050956;28;20847;-74
2021/12/06 11:31:03;;;;;;;17.17;15.97;;;9.40;99.90;;;;;;5050547;28;20454;-74
2021/12/06 11:33:31;;;;;;;16.83;15.83;;;9.30;99.90;;;;;;5049987;28;20942;-74
2021/12/06 11:35:58;;;;;;;17.40;16.10;;;9.40;99.90;;;;;;5049965;28;20488;-74
2021/12/06 11:38:28;;;;;;;19.97;18.10;;;9.20;99.90;;;;;;5050403;28;20499;-74
2021/12/06 11:40:58;;;;;;;18.03;16.53;;;9.00;99.90;;;;;;5050228;28;20935;-74
2021/12/06 11:43:26;;;;;;;18.83;17.43;;;8.60;99.90;;;;;;5049983;28;20448;-73
2021/12/06 11:45:56;;;;;;;21.97;20.30;;;8.40;99.90;;;;;;5049838;28;21041;-73
2021/12/06 11:48:24;;;;;;;20.87;18.93;;;8.00;99.90;;;;;;5050713;28;20550;-74
2021/12/06 11:50:54;;;;;;;17.50;16.30;;;7.80;99.90;;;;;;5050043;28;20507;-73
2021/12/06 11:53:23;;;;;;;16.97;15.57;;;7.60;99.90;;;;;;5050067;28;20506;-74
2021/12/06 11:55:52;;;;;;;19.27;17.87;;;7.60;99.90;;;;;;5050104;28;20495;-73
2021/12/06 11:58:26;;;;;;;16.63;14.93;;;7.70;99.90;;;;;;5050175;28;20460;-74
2021/12/06 12:01:07;;;;;;;15.70;14.57;;;7.80;99.90;;;;;;5050246;28;20768;-74
2021/12/06 12:03:35;;;;;;;13.80;12.90;;;7.90;99.90;;;;;;5050245;28;20455;-74
2021/12/06 12:06:02;;;;;;;15.50;14.50;;;8.00;99.90;;;;;;5050027;28;20470;-74
2021/12/06 12:08:33;;;;;;;15.53;14.57;;;8.00;99.90;;;;;;5050538;28;20452;-74
2021/12/06 12:11:00;;;;;;;14.33;13.30;;;8.20;99.90;;;;;;5050067;28;20443;-74
2021/12/06 12:13:31;;;;;;;14.00;13.10;;;8.30;99.90;;;;;;5049745;28;20464;-74
2021/12/06 12:16:00;;;;;;;14.50;13.60;;;8.40;99.90;;;;;;5049982;28;20815;-74
2021/12/06 12:18:28;;;;;;;15.67;14.37;;;8.50;99.90;;;;;;5049819;28;20501;-74
2021/12/06 12:20:55;;;;;;;44.00;21.90;;;8.70;99.90;;;;;;5049456;28;20452;-73
2021/12/06 12:23:24;;;;;;;17.77;16.07;;;8.90;99.90;;;;;;5049737;28;20471;-73
2021/12/06 12:25:55;;;;;;;14.97;14.00;;;9.00;99.90;;;;;;5049451;28;20451;-73
2021/12/06 12:28:26;;;;;;;16.87;15.57;;;8.90;99.90;;;;;;5049473;28;20485;-74
2021/12/06 12:30:57;;;;;;;16.17;15.07;;;9.30;99.90;;;;;;5049441;28;20864;-74
2021/12/06 12:33:23;;;;;;;17.43;15.63;;;9.50;99.90;;;;;;5049677;28;20457;-74
2021/12/06 12:35:54;;;;;;;15.27;14.33;;;9.80;99.90;;;;;;5049534;28;20491;-75
2021/12/06 12:38:24;;;;;;;14.13;12.93;;;10.00;99.90;;;;;;5049724;28;20451;-73
2021/12/06 12:40:54;;;;;;;11.43;10.77;;;9.40;99.90;;;;;;5049575;28;20503;-74
2021/12/06 12:43:23;;;;;;;13.00;12.30;;;9.30;99.90;;;;;;5049522;28;20453;-74
2021/12/06 12:45:53;;;;;;;15.67;14.27;;;9.30;99.90;;;;;;5051409;28;20526;-74
2021/12/06 12:48:25;;;;;;;18.93;15.53;;;9.30;99.90;;;;;;5053253;28;20453;-74